الصفحة الرئيسية
METAR-TAF:

METAR-TAF

مطار :

مطار بني ملال

بني ملال, المغرب

دائرة عرض: 32-24-00N, خط طول: 06-19-00W, ارتفاع: 518 متر

مراقبة الطقس الحالي

تاريخ ووقت الإصدار 1ساعة و 6 دقيقة قبل الساعة 13:00UTC
ريح 4 عقدة من الجنوب
درجة الحرارة 14°درجة مئوية
الرطوبة 67%
ضغط 1015 hPa
الرؤية 10 كم أو أكثر
غيوم متفرقة على ارتفاع 3000 قدم, مزن ركامية عمودية.
غيوم مفككة على ارتفاع 10000 قدم

METAR: GMMD 061300Z 18004KT 9999 SCT030TCU BKN100 14/08 Q1015 TEMPO RA

زمن: 15:06 (14:06 UTC)


TAF: مفقودة

أرصاد الطقس والتوقعات من أكثر من 4000 مطار (تقارير الطقس للمطار METAR والتنبؤ بالطقس بالمطارTAF).

المحطات المتاحة هي النقط الصفراء والحمراء على الخريطة.

حرك المؤشر فوق النقطة لمعرفة اسم المحطة.

ثم انقر لمعرفة أرصاد وتوقعات الطقس.

لتغيير الخارطة: اضغط على الأزرار الخضراء مع رمز الصليب الأسود للتكبير. على الزر الأخضر مع شرطة للتصغير، أو على الأسهم الخضراء للخرائط المجاورة.


METAR-TAF: